createdAt,value
2023-04-27T00:00:37.617Z,58.93
2023-04-27T00:03:16.309Z,58.95
2023-04-27T00:05:44.548Z,58.86
2023-04-27T00:08:12.379Z,59.13
2023-04-27T00:10:40.037Z,59.11
2023-04-27T00:13:07.695Z,59.07
2023-04-27T00:15:35.365Z,59.19
2023-04-27T00:18:03.153Z,59.23
2023-04-27T00:20:30.881Z,59.29
2023-04-27T00:22:58.552Z,59.31
2023-04-27T00:25:26.309Z,59.30
2023-04-27T00:27:53.977Z,59.41
2023-04-27T00:30:21.743Z,59.69
2023-04-27T00:32:49.428Z,59.66
2023-04-27T00:35:17.282Z,59.59
2023-04-27T00:37:45.027Z,59.68
2023-04-27T00:40:12.730Z,59.73
2023-04-27T00:42:40.738Z,59.67
2023-04-27T00:45:08.523Z,59.80
2023-04-27T00:47:36.341Z,59.88
2023-04-27T00:50:04.266Z,59.94
2023-04-27T00:52:31.921Z,60.08
2023-04-27T00:54:59.685Z,59.95
2023-04-27T00:57:27.348Z,60.05
2023-04-27T00:59:55.007Z,60.17
2023-04-27T01:02:23.079Z,60.07
2023-04-27T01:04:51.255Z,60.09
2023-04-27T01:07:18.912Z,60.21
2023-04-27T01:09:46.881Z,60.29
2023-04-27T01:12:14.644Z,60.27
2023-04-27T01:14:42.612Z,60.34
2023-04-27T01:17:11.064Z,60.33
2023-04-27T01:19:40.597Z,60.38
2023-04-27T01:22:08.365Z,60.40
2023-04-27T01:24:36.812Z,60.26
2023-04-27T01:27:05.130Z,60.56
2023-04-27T01:29:32.886Z,60.60
2023-04-27T01:32:00.560Z,60.73
2023-04-27T01:34:28.310Z,60.81
2023-04-27T01:36:55.968Z,61.03
2023-04-27T01:39:23.634Z,60.81
2023-04-27T01:41:51.303Z,61.14
2023-04-27T01:44:21.106Z,61.22
2023-04-27T01:46:48.873Z,61.37
2023-04-27T01:49:16.996Z,61.23
2023-04-27T01:51:44.794Z,61.03
2023-04-27T01:54:12.486Z,61.22
2023-04-27T01:56:40.141Z,61.37
2023-04-27T01:59:07.916Z,61.37
2023-04-27T02:01:35.804Z,61.33
2023-04-27T02:04:04.585Z,61.54
2023-04-27T02:06:32.961Z,61.53
2023-04-27T02:09:00.597Z,61.39
2023-04-27T02:11:28.378Z,61.68
2023-04-27T02:13:56.124Z,61.89
2023-04-27T02:16:23.955Z,61.82
2023-04-27T02:18:54.021Z,62.02
2023-04-27T02:21:21.975Z,61.87
2023-04-27T02:23:49.637Z,61.97
2023-04-27T02:26:17.822Z,62.26
2023-04-27T02:28:45.981Z,62.25
2023-04-27T02:31:14.825Z,62.07
2023-04-27T02:33:42.653Z,62.10
2023-04-27T02:36:10.518Z,62.43
2023-04-27T02:38:38.177Z,62.47
2023-04-27T02:41:06.037Z,62.82
2023-04-27T02:43:33.695Z,62.70
2023-04-27T02:46:01.356Z,62.69
2023-04-27T02:48:29.016Z,62.94
2023-04-27T02:50:57.497Z,62.66
2023-04-27T02:53:25.157Z,62.64
2023-04-27T02:55:52.842Z,62.66
2023-04-27T02:58:20.590Z,62.60
2023-04-27T03:00:48.970Z,62.86
2023-04-27T03:03:16.999Z,62.48
2023-04-27T03:05:44.826Z,62.64
2023-04-27T03:08:12.565Z,62.69
2023-04-27T03:10:40.225Z,62.86
2023-04-27T03:13:07.883Z,62.86
2023-04-27T03:15:35.652Z,62.75
2023-04-27T03:18:03.427Z,62.58
2023-04-27T03:20:32.196Z,63.14
2023-04-27T03:22:59.965Z,62.88
2023-04-27T03:25:27.638Z,62.72
2023-04-27T03:27:55.393Z,63.10
2023-04-27T03:30:23.061Z,63.22
2023-04-27T03:32:50.957Z,63.09
2023-04-27T03:35:18.792Z,63.06
2023-04-27T03:37:46.557Z,63.05
2023-04-27T03:40:14.757Z,63.00
2023-04-27T03:42:42.486Z,63.29
2023-04-27T03:45:12.397Z,63.03
2023-04-27T03:47:40.311Z,63.50
2023-04-27T03:50:08.140Z,63.14
2023-04-27T03:52:35.798Z,63.55
2023-04-27T03:55:03.457Z,63.51
2023-04-27T03:57:31.227Z,63.51
2023-04-27T03:59:58.904Z,63.38
2023-04-27T04:02:27.145Z,63.22
2023-04-27T04:04:55.150Z,63.72
2023-04-27T04:07:23.099Z,63.73
2023-04-27T04:09:51.186Z,63.67
2023-04-27T04:12:18.908Z,63.76
2023-04-27T04:14:49.147Z,63.77
2023-04-27T04:17:17.129Z,63.80
2023-04-27T04:19:45.093Z,63.90
2023-04-27T04:22:12.764Z,64.53
2023-04-27T04:24:40.577Z,64.18
2023-04-27T04:27:09.213Z,64.32
2023-04-27T04:29:36.899Z,64.05
2023-04-27T04:32:04.629Z,63.96
2023-04-27T04:34:32.293Z,64.41
2023-04-27T04:36:59.954Z,64.41
2023-04-27T04:39:27.612Z,64.36
2023-04-27T04:41:55.276Z,64.25
2023-04-27T04:44:23.048Z,64.52
2023-04-27T04:46:51.441Z,64.76
2023-04-27T04:49:19.181Z,64.85
2023-04-27T04:51:47.368Z,64.77
2023-04-27T04:54:15.324Z,64.73
2023-04-27T04:56:42.946Z,64.83
2023-04-27T04:59:10.971Z,65.06
2023-04-27T05:01:38.862Z,64.97
2023-04-27T05:04:06.753Z,65.05
2023-04-27T05:06:34.862Z,65.26
2023-04-27T05:09:02.523Z,65.32
2023-04-27T05:11:30.288Z,65.49
2023-04-27T05:13:57.949Z,65.59
2023-04-27T05:16:26.772Z,65.26
2023-04-27T05:18:55.010Z,65.56
2023-04-27T05:21:22.802Z,65.66
2023-04-27T05:23:50.655Z,65.55
2023-04-27T05:26:18.405Z,65.53
2023-04-27T05:28:47.296Z,65.72
2023-04-27T05:31:14.982Z,65.69
2023-04-27T05:33:42.730Z,65.95
2023-04-27T05:36:11.101Z,65.82
2023-04-27T05:38:40.476Z,65.72
2023-04-27T05:41:08.476Z,65.95
2023-04-27T05:43:38.189Z,65.63
2023-04-27T05:46:05.975Z,65.50
2023-04-27T05:48:33.727Z,65.52
2023-04-27T05:51:01.999Z,65.27
2023-04-27T05:53:29.754Z,65.47
2023-04-27T05:55:59.461Z,65.33
2023-04-27T05:58:27.131Z,65.19
2023-04-27T06:00:54.894Z,65.33
2023-04-27T06:03:22.811Z,65.00
2023-04-27T06:05:50.726Z,64.94
2023-04-27T06:08:18.394Z,65.08
2023-04-27T06:10:46.049Z,65.04
2023-04-27T06:13:13.814Z,65.08
2023-04-27T06:15:41.798Z,64.81
2023-04-27T06:18:09.594Z,64.87
2023-04-27T06:20:37.423Z,64.81
2023-04-27T06:23:05.078Z,64.55
2023-04-27T06:25:32.739Z,64.38
2023-04-27T06:28:00.606Z,64.18
2023-04-27T06:30:28.390Z,64.24
2023-04-27T06:32:56.176Z,64.06
2023-04-27T06:35:23.911Z,64.20
2023-04-27T06:37:51.657Z,64.18
2023-04-27T06:40:19.317Z,63.81
2023-04-27T06:42:46.971Z,63.48
2023-04-27T06:45:14.750Z,63.46
2023-04-27T06:47:42.518Z,63.77
2023-04-27T06:50:10.279Z,63.92
2023-04-27T06:52:38.038Z,63.51
2023-04-27T06:55:06.013Z,63.36
2023-04-27T06:57:33.877Z,63.30
2023-04-27T07:00:01.748Z,63.15
2023-04-27T07:02:29.476Z,63.11
2023-04-27T07:04:57.434Z,63.19
2023-04-27T07:07:25.134Z,62.71
2023-04-27T07:09:52.794Z,62.39
2023-04-27T07:12:20.662Z,62.31
2023-04-27T07:14:50.890Z,62.31
2023-04-27T07:17:18.648Z,62.02
2023-04-27T07:19:46.423Z,62.12
2023-04-27T07:22:16.187Z,61.45
2023-04-27T07:24:43.888Z,61.39
2023-04-27T07:27:11.648Z,60.69
2023-04-27T07:29:39.618Z,59.99
2023-04-27T07:32:07.520Z,60.12
2023-04-27T07:34:49.054Z,60.11
2023-04-27T07:37:21.265Z,59.24
2023-04-27T07:39:48.944Z,60.14
2023-04-27T07:42:16.968Z,59.83
2023-04-27T07:44:44.632Z,59.96
2023-04-27T07:47:13.438Z,59.08
2023-04-27T07:49:41.200Z,58.21
2023-04-27T07:52:08.953Z,58.51
2023-04-27T07:54:36.621Z,58.14
2023-04-27T07:57:04.275Z,57.48
2023-04-27T07:59:32.032Z,56.70
2023-04-27T08:02:17.843Z,57.32
2023-04-27T08:04:48.205Z,56.25
2023-04-27T08:07:17.335Z,56.62
2023-04-27T08:09:45.421Z,55.68
2023-04-27T08:12:13.052Z,55.51
2023-04-27T08:14:40.944Z,53.73
2023-04-27T08:17:08.607Z,54.14
2023-04-27T08:19:36.471Z,54.34
2023-04-27T08:22:04.157Z,54.13
2023-04-27T08:24:32.005Z,53.93
2023-04-27T08:26:59.667Z,53.55
2023-04-27T08:29:28.851Z,53.44
2023-04-27T08:31:57.193Z,53.44
2023-04-27T08:34:25.108Z,52.73
2023-04-27T08:36:54.227Z,52.41
2023-04-27T08:39:22.073Z,52.27
2023-04-27T08:41:49.846Z,52.15
2023-04-27T08:44:17.491Z,52.77
2023-04-27T08:46:45.451Z,53.35
2023-04-27T08:49:15.995Z,53.19
2023-04-27T08:51:44.926Z,53.73
2023-04-27T08:54:12.665Z,53.64
2023-04-27T08:56:40.306Z,53.57
2023-04-27T08:59:07.981Z,53.43
2023-04-27T09:01:35.759Z,52.69
2023-04-27T09:04:03.790Z,52.14
2023-04-27T09:06:32.052Z,52.36
2023-04-27T09:08:59.956Z,52.34
2023-04-27T09:14:22.107Z,52.04
2023-04-27T09:16:50.286Z,52.17
2023-04-27T09:19:18.041Z,51.63
2023-04-27T09:21:48.364Z,51.47
2023-04-27T09:24:16.020Z,51.82
2023-04-27T09:26:43.790Z,51.46
2023-04-27T09:29:12.111Z,51.86
2023-04-27T09:31:40.662Z,51.80
2023-04-27T09:34:08.413Z,50.91
2023-04-27T09:36:36.381Z,51.36
2023-04-27T09:39:06.907Z,50.55
2023-04-27T09:41:34.566Z,49.65
2023-04-27T09:44:02.234Z,48.82
2023-04-27T09:46:30.266Z,49.01
2023-04-27T09:48:58.066Z,48.48
2023-04-27T09:51:26.444Z,47.86
2023-04-27T09:53:54.208Z,48.85
2023-04-27T09:56:22.299Z,48.40
2023-04-27T09:58:50.044Z,48.06
2023-04-27T10:01:17.739Z,47.72
2023-04-27T10:03:45.628Z,48.32
2023-04-27T10:06:13.442Z,48.13
2023-04-27T10:08:42.033Z,48.10
2023-04-27T10:11:09.687Z,47.57
2023-04-27T10:13:37.447Z,47.54
2023-04-27T10:16:05.109Z,47.15
2023-04-27T10:18:32.783Z,47.67
2023-04-27T10:21:00.744Z,47.46
2023-04-27T10:23:29.199Z,47.27
2023-04-27T10:25:57.510Z,47.15
2023-04-27T10:28:25.473Z,46.95
2023-04-27T10:30:53.238Z,46.22
2023-04-27T10:33:21.612Z,46.58
2023-04-27T10:35:49.273Z,46.61
2023-04-27T10:38:17.492Z,44.25
2023-04-27T10:40:45.215Z,45.07
2023-04-27T10:43:12.976Z,45.14
2023-04-27T10:45:41.708Z,45.18
2023-04-27T10:48:09.600Z,45.01
2023-04-27T10:50:37.393Z,44.52
2023-04-27T10:53:05.055Z,44.10
2023-04-27T10:55:32.819Z,45.24
2023-04-27T10:58:01.714Z,42.60
2023-04-27T11:00:29.475Z,44.09
2023-04-27T11:02:57.343Z,44.19
2023-04-27T11:05:25.640Z,44.50
2023-04-27T11:07:53.287Z,43.65
2023-04-27T11:10:21.093Z,44.53
2023-04-27T11:12:48.911Z,45.11
2023-04-27T11:15:16.674Z,45.26
2023-04-27T11:17:44.617Z,44.54
2023-04-27T11:20:12.747Z,43.54
2023-04-27T11:22:40.580Z,43.47
2023-04-27T11:25:08.799Z,43.71
2023-04-27T11:27:37.131Z,43.67
2023-04-27T11:30:04.893Z,42.75
2023-04-27T11:32:32.618Z,43.22
2023-04-27T11:35:00.726Z,43.08
2023-04-27T11:37:28.503Z,43.09
2023-04-27T11:39:57.717Z,43.50
2023-04-27T11:42:25.671Z,44.18
2023-04-27T11:44:53.736Z,43.99
2023-04-27T11:47:22.915Z,44.16
2023-04-27T11:49:50.807Z,44.55
2023-04-27T11:52:18.466Z,44.61
2023-04-27T11:54:46.228Z,44.63
2023-04-27T11:57:13.898Z,44.78
2023-04-27T11:59:41.959Z,44.81
2023-04-27T12:02:10.320Z,44.90
2023-04-27T12:04:38.418Z,44.79
2023-04-27T12:07:06.799Z,45.13
2023-04-27T12:09:34.652Z,44.65
2023-04-27T12:12:02.767Z,44.90
2023-04-27T12:14:30.484Z,45.31
2023-04-27T12:16:58.200Z,44.79
2023-04-27T12:19:26.329Z,45.07
2023-04-27T12:21:54.285Z,45.17
2023-04-27T12:24:22.053Z,45.40
2023-04-27T12:26:49.817Z,45.70
2023-04-27T12:29:18.001Z,45.77
2023-04-27T12:31:45.931Z,45.77
2023-04-27T12:34:14.004Z,45.81
2023-04-27T12:36:42.212Z,45.96
2023-04-27T12:39:09.966Z,45.76
2023-04-27T12:41:37.639Z,45.88
2023-04-27T12:44:05.605Z,45.79
2023-04-27T12:46:33.285Z,46.18
2023-04-27T12:49:02.152Z,46.03
2023-04-27T12:51:30.015Z,45.73
2023-04-27T12:54:00.193Z,45.72
2023-04-27T12:56:29.025Z,45.68
2023-04-27T12:58:56.906Z,46.08
2023-04-27T13:01:28.099Z,45.50
2023-04-27T13:03:56.288Z,45.58
2023-04-27T13:06:24.178Z,44.97
2023-04-27T13:08:51.840Z,42.56
2023-04-27T13:11:19.502Z,43.07
2023-04-27T13:13:48.493Z,43.78
2023-04-27T13:16:16.837Z,43.17
2023-04-27T13:18:48.528Z,43.81
2023-04-27T13:21:16.804Z,42.53
2023-04-27T13:23:44.467Z,43.18
2023-04-27T13:26:12.128Z,43.35
2023-04-27T13:28:41.219Z,43.53
2023-04-27T13:31:08.949Z,43.06
2023-04-27T13:33:36.783Z,43.76
2023-04-27T13:36:04.511Z,42.90
2023-04-27T13:38:32.181Z,43.50
2023-04-27T13:40:59.842Z,43.67
2023-04-27T13:43:27.600Z,43.82
2023-04-27T13:45:57.217Z,43.95
2023-04-27T13:48:26.112Z,43.69
2023-04-27T13:50:53.760Z,43.71
2023-04-27T13:53:21.624Z,43.95
2023-04-27T13:55:49.322Z,43.99
2023-04-27T13:58:17.056Z,43.81
2023-04-27T14:00:44.933Z,43.71
2023-04-27T14:03:12.828Z,44.06
2023-04-27T14:05:40.761Z,43.80
2023-04-27T14:08:08.416Z,43.12
2023-04-27T14:10:36.077Z,42.68
2023-04-27T14:13:03.749Z,41.04
2023-04-27T14:15:33.963Z,42.62
2023-04-27T14:18:01.690Z,42.38
2023-04-27T14:20:29.493Z,42.72
2023-04-27T14:22:58.512Z,41.50
2023-04-27T14:25:27.481Z,41.40
2023-04-27T14:27:55.240Z,41.74
2023-04-27T14:30:23.417Z,42.26
2023-04-27T14:32:51.233Z,42.78
2023-04-27T14:35:19.360Z,42.94
2023-04-27T14:37:47.529Z,42.94
2023-04-27T14:40:15.290Z,43.49
2023-04-27T14:42:42.958Z,43.55
2023-04-27T14:45:10.935Z,43.41
2023-04-27T14:47:38.932Z,43.61
2023-04-27T14:50:06.812Z,43.70
2023-04-27T14:52:34.627Z,43.76
2023-04-27T14:55:02.392Z,43.72
2023-04-27T14:57:30.053Z,43.90
2023-04-27T14:59:57.822Z,44.06
2023-04-27T15:02:25.758Z,44.34
2023-04-27T15:04:53.918Z,44.40
2023-04-27T15:07:21.734Z,44.67
2023-04-27T15:09:49.500Z,44.54
2023-04-27T15:12:17.252Z,44.67
2023-04-27T15:14:45.013Z,44.56
2023-04-27T15:17:13.510Z,44.82
2023-04-27T15:19:41.566Z,44.75
2023-04-27T15:22:09.498Z,44.86
2023-04-27T15:24:37.394Z,44.72
2023-04-27T15:27:05.059Z,44.74
2023-04-27T15:29:32.739Z,45.03
2023-04-27T15:32:00.603Z,45.43
2023-04-27T15:34:28.357Z,45.68
2023-04-27T15:36:56.118Z,45.72
2023-04-27T15:39:23.784Z,45.93
2023-04-27T15:41:51.418Z,45.87
2023-04-27T15:44:19.202Z,46.06
2023-04-27T15:46:47.139Z,46.01
2023-04-27T15:49:15.171Z,46.36
2023-04-27T15:51:43.325Z,46.25
2023-04-27T15:54:11.491Z,46.34
2023-04-27T15:56:39.153Z,46.43
2023-04-27T15:59:08.251Z,46.24
2023-04-27T16:01:36.790Z,46.34
2023-04-27T16:04:04.746Z,46.58
2023-04-27T16:06:33.281Z,46.91
2023-04-27T16:09:01.884Z,47.09
2023-04-27T16:11:29.522Z,47.39
2023-04-27T16:13:57.187Z,47.76
2023-04-27T16:16:24.989Z,47.74
2023-04-27T16:18:52.820Z,47.78
2023-04-27T16:21:20.691Z,48.03
2023-04-27T16:23:48.574Z,48.09
2023-04-27T16:26:16.464Z,48.27
2023-04-27T16:28:44.284Z,48.26
2023-04-27T16:31:12.148Z,48.05
2023-04-27T16:33:39.924Z,48.26
2023-04-27T16:36:07.680Z,48.46
2023-04-27T16:38:36.579Z,48.27
2023-04-27T16:41:05.492Z,48.48
2023-04-27T16:43:34.137Z,48.55
2023-04-27T16:46:01.919Z,48.57
2023-04-27T16:48:30.489Z,48.69
2023-04-27T16:50:58.252Z,48.74
2023-04-27T16:53:27.348Z,48.82
2023-04-27T16:55:55.109Z,48.78
2023-04-27T16:58:22.779Z,49.01
2023-04-27T17:00:50.538Z,48.82
2023-04-27T17:03:18.440Z,49.06
2023-04-27T17:05:46.379Z,49.06
2023-04-27T17:08:14.032Z,49.47
2023-04-27T17:10:41.701Z,49.57
2023-04-27T17:13:11.201Z,49.54
2023-04-27T17:15:38.880Z,49.72
2023-04-27T17:18:06.842Z,49.74
2023-04-27T17:20:34.803Z,50.00
2023-04-27T17:23:02.568Z,49.95
2023-04-27T17:25:30.226Z,49.98
2023-04-27T17:27:59.562Z,50.20
2023-04-27T17:30:29.172Z,50.32
2023-04-27T17:32:56.977Z,50.33
2023-04-27T17:35:24.873Z,50.16
2023-04-27T17:37:52.639Z,50.30
2023-04-27T17:40:21.209Z,50.29
2023-04-27T17:42:49.188Z,50.21
2023-04-27T17:45:16.954Z,50.40
2023-04-27T17:47:44.614Z,50.72
2023-04-27T17:50:12.390Z,50.54
2023-04-27T17:52:40.146Z,50.54
2023-04-27T17:55:07.804Z,50.79
2023-04-27T17:57:35.534Z,50.82
2023-04-27T18:00:03.260Z,50.83
2023-04-27T18:02:31.082Z,50.86
2023-04-27T18:04:59.066Z,50.93
2023-04-27T18:07:26.932Z,51.13
2023-04-27T18:09:56.785Z,51.34
2023-04-27T18:12:24.823Z,51.46
2023-04-27T18:14:52.723Z,51.22
2023-04-27T18:17:21.266Z,51.47
2023-04-27T18:19:55.345Z,51.58
2023-04-27T18:22:28.878Z,51.71
2023-04-27T18:24:56.742Z,51.52
2023-04-27T18:27:24.507Z,51.60
2023-04-27T18:29:52.271Z,51.87
2023-04-27T18:32:20.038Z,52.16
2023-04-27T18:34:48.008Z,52.47
2023-04-27T18:37:15.869Z,53.13
2023-04-27T18:39:43.848Z,52.96
2023-04-27T18:42:11.805Z,53.12
2023-04-27T18:44:39.571Z,53.03
2023-04-27T18:47:08.051Z,53.78
2023-04-27T18:49:35.921Z,53.96
2023-04-27T18:52:03.569Z,53.97
2023-04-27T18:54:31.239Z,53.61
2023-04-27T18:56:59.004Z,53.35
2023-04-27T18:59:26.663Z,53.78
2023-04-27T19:01:54.520Z,54.16
2023-04-27T19:04:22.724Z,54.37
2023-04-27T19:06:50.883Z,54.76
2023-04-27T19:09:19.569Z,55.01
2023-04-27T19:11:56.114Z,54.89
2023-04-27T19:14:33.734Z,55.44
2023-04-27T19:17:01.851Z,55.29
2023-04-27T19:19:29.781Z,55.83
2023-04-27T19:21:58.689Z,55.77
2023-04-27T19:24:26.426Z,56.17
2023-04-27T19:26:54.409Z,56.33
2023-04-27T19:29:22.468Z,56.52
2023-04-27T19:31:50.240Z,56.94
2023-04-27T19:34:18.003Z,57.05
2023-04-27T19:36:46.594Z,57.06
2023-04-27T19:39:16.025Z,57.11
2023-04-27T19:41:43.954Z,56.85
2023-04-27T19:44:11.832Z,57.25
2023-04-27T19:46:40.113Z,57.44
2023-04-27T19:49:07.866Z,57.45
2023-04-27T19:51:35.615Z,57.47
2023-04-27T19:54:03.285Z,57.70
2023-04-27T19:56:32.894Z,58.42
2023-04-27T19:59:00.962Z,58.20
2023-04-27T20:01:28.761Z,58.63
2023-04-27T20:03:57.572Z,58.66
2023-04-27T20:06:25.483Z,59.10
2023-04-27T20:08:53.247Z,59.20
2023-04-27T20:11:21.110Z,58.90
2023-04-27T20:13:49.487Z,59.17
2023-04-27T20:16:18.657Z,59.44
2023-04-27T20:18:46.762Z,59.68
2023-04-27T20:21:14.832Z,59.35
2023-04-27T20:23:43.105Z,59.60
2023-04-27T20:26:11.072Z,59.75
2023-04-27T20:28:38.753Z,59.43
2023-04-27T20:31:06.504Z,59.80
2023-04-27T20:33:34.160Z,59.56
2023-04-27T20:36:14.070Z,59.85
2023-04-27T20:38:44.747Z,59.82
2023-04-27T20:41:12.717Z,59.66
2023-04-27T20:43:40.896Z,60.00
2023-04-27T20:46:08.708Z,59.99
2023-04-27T20:48:36.932Z,60.23
2023-04-27T20:51:04.703Z,60.34
2023-04-27T20:53:32.353Z,60.38
2023-04-27T20:56:00.015Z,60.42
2023-04-27T20:58:27.693Z,60.49
2023-04-27T21:00:55.689Z,60.76
2023-04-27T21:03:23.606Z,60.71
2023-04-27T21:05:51.796Z,60.83
2023-04-27T21:08:19.559Z,60.47
2023-04-27T21:10:47.421Z,60.73
2023-04-27T21:13:15.296Z,60.57
2023-04-27T21:15:43.261Z,60.74
2023-04-27T21:18:22.438Z,60.62
2023-04-27T21:20:56.600Z,60.84
2023-04-27T21:23:24.369Z,60.96
2023-04-27T21:25:52.134Z,60.85
2023-04-27T21:28:19.896Z,61.12
2023-04-27T21:30:47.941Z,61.22
2023-04-27T21:33:15.739Z,61.18
2023-04-27T21:35:43.700Z,61.75
2023-04-27T21:38:11.461Z,61.36
2023-04-27T21:40:39.634Z,61.30
2023-04-27T21:43:07.917Z,61.27
2023-04-27T21:45:36.390Z,61.36
2023-04-27T21:48:04.130Z,61.53
2023-04-27T21:50:31.919Z,61.64
2023-04-27T21:52:59.581Z,61.70
2023-04-27T21:55:27.241Z,61.88
2023-04-27T21:57:55.107Z,61.64
2023-04-27T22:00:22.880Z,61.89
2023-04-27T22:02:51.681Z,61.86
2023-04-27T22:05:22.605Z,62.04
2023-04-27T22:07:51.701Z,62.03
2023-04-27T22:10:19.453Z,62.19
2023-04-27T22:12:47.335Z,62.07
2023-04-27T22:15:15.406Z,62.32
2023-04-27T22:17:44.158Z,62.51
2023-04-27T22:20:13.071Z,62.21
2023-04-27T22:22:41.259Z,62.52
2023-04-27T22:25:09.015Z,62.36
2023-04-27T22:27:44.601Z,62.38
2023-04-27T22:30:13.362Z,62.45
2023-04-27T22:32:41.379Z,62.61
2023-04-27T22:35:24.862Z,62.37
2023-04-27T22:37:54.659Z,62.45
2023-04-27T22:40:22.330Z,62.44
2023-04-27T22:42:50.093Z,62.46
2023-04-27T22:45:17.716Z,62.68
2023-04-27T22:47:46.218Z,62.52
2023-04-27T22:50:14.098Z,62.63
2023-04-27T22:52:44.839Z,62.45
2023-04-27T22:55:12.685Z,62.40
2023-04-27T22:57:40.666Z,62.65
2023-04-27T23:00:12.052Z,62.48
2023-04-27T23:02:40.536Z,62.78
2023-04-27T23:05:08.668Z,62.93
2023-04-27T23:07:36.404Z,62.88
2023-04-27T23:10:05.220Z,62.95
2023-04-27T23:12:32.988Z,63.01
2023-04-27T23:15:00.746Z,62.97
2023-04-27T23:17:31.370Z,63.12
2023-04-27T23:19:59.291Z,63.04
2023-04-27T23:22:27.016Z,63.16
2023-04-27T23:24:54.777Z,63.18
2023-04-27T23:27:23.769Z,63.27
2023-04-27T23:29:51.539Z,63.30
2023-04-27T23:32:19.312Z,63.37
2023-04-27T23:34:47.057Z,63.28
2023-04-27T23:37:14.720Z,63.33
2023-04-27T23:39:42.499Z,63.45
2023-04-27T23:42:10.247Z,63.41
2023-04-27T23:44:38.011Z,63.48
2023-04-27T23:47:05.672Z,63.47
2023-04-27T23:49:33.336Z,63.41
2023-04-27T23:52:00.997Z,63.41
2023-04-27T23:54:28.660Z,63.45
2023-04-27T23:56:56.428Z,63.70
2023-04-27T23:59:24.093Z,63.59
